sensor_id;sensor_type;location;lat;lon;timestamp;temperature;humidity
46217;DHT22;47258;59.424;13.482;2023-05-07T00:01:12;21.20;53.60
46217;DHT22;47258;59.424;13.482;2023-05-07T00:03:44;21.20;53.80
46217;DHT22;47258;59.424;13.482;2023-05-07T00:06:21;21.20;54.10
46217;DHT22;47258;59.424;13.482;2023-05-07T00:09:01;21.20;54.30
46217;DHT22;47258;59.424;13.482;2023-05-07T00:11:36;21.20;54.70
46217;DHT22;47258;59.424;13.482;2023-05-07T00:14:12;21.20;54.90
46217;DHT22;47258;59.424;13.482;2023-05-07T00:16:47;21.20;55.20
46217;DHT22;47258;59.424;13.482;2023-05-07T00:19:22;21.20;54.60
46217;DHT22;47258;59.424;13.482;2023-05-07T00:21:53;21.20;55.40
46217;DHT22;47258;59.424;13.482;2023-05-07T00:24:35;21.20;55.90
46217;DHT22;47258;59.424;13.482;2023-05-07T00:27:09;21.10;56.20
46217;DHT22;47258;59.424;13.482;2023-05-07T00:29:47;21.10;56.40
46217;DHT22;47258;59.424;13.482;2023-05-07T00:32:23;21.10;56.70
46217;DHT22;47258;59.424;13.482;2023-05-07T00:34:58;21.10;57.10
46217;DHT22;47258;59.424;13.482;2023-05-07T00:37:34;21.10;57.40
46217;DHT22;47258;59.424;13.482;2023-05-07T00:40:08;21.10;57.70
46217;DHT22;47258;59.424;13.482;2023-05-07T00:42:45;21.20;57.80
46217;DHT22;47258;59.424;13.482;2023-05-07T00:45:29;21.10;57.60
46217;DHT22;47258;59.424;13.482;2023-05-07T00:48:04;21.10;57.40
46217;DHT22;47258;59.424;13.482;2023-05-07T00:50:35;21.10;57.40
46217;DHT22;47258;59.424;13.482;2023-05-07T00:53:08;21.10;57.30
46217;DHT22;47258;59.424;13.482;2023-05-07T00:55:41;21.10;57.30
46217;DHT22;47258;59.424;13.482;2023-05-07T00:58:15;21.10;57.30
46217;DHT22;47258;59.424;13.482;2023-05-07T01:00:52;21.10;57.30
46217;DHT22;47258;59.424;13.482;2023-05-07T01:03:26;21.10;57.40
46217;DHT22;47258;59.424;13.482;2023-05-07T01:06:00;21.10;57.50
46217;DHT22;47258;59.424;13.482;2023-05-07T01:08:33;21.10;57.50
46217;DHT22;47258;59.424;13.482;2023-05-07T01:11:09;21.10;57.50
46217;DHT22;47258;59.424;13.482;2023-05-07T01:13:48;21.10;57.40
46217;DHT22;47258;59.424;13.482;2023-05-07T01:16:27;21.10;57.50
46217;DHT22;47258;59.424;13.482;2023-05-07T01:19:00;21.10;57.40
46217;DHT22;47258;59.424;13.482;2023-05-07T01:21:36;21.10;57.40
46217;DHT22;47258;59.424;13.482;2023-05-07T01:24:13;21.10;57.50
46217;DHT22;47258;59.424;13.482;2023-05-07T01:26:46;21.10;57.70
46217;DHT22;47258;59.424;13.482;2023-05-07T01:29:25;21.10;57.70
46217;DHT22;47258;59.424;13.482;2023-05-07T01:32:01;21.10;57.60
46217;DHT22;47258;59.424;13.482;2023-05-07T01:34:42;21.10;57.50
46217;DHT22;47258;59.424;13.482;2023-05-07T01:37:16;21.10;57.50
46217;DHT22;47258;59.424;13.482;2023-05-07T01:39:51;21.10;57.40
46217;DHT22;47258;59.424;13.482;2023-05-07T01:42:32;21.00;57.70
46217;DHT22;47258;59.424;13.482;2023-05-07T01:45:09;21.10;57.70
46217;DHT22;47258;59.424;13.482;2023-05-07T01:47:43;21.10;57.70
46217;DHT22;47258;59.424;13.482;2023-05-07T01:50:25;21.00;57.80
46217;DHT22;47258;59.424;13.482;2023-05-07T01:52:59;21.10;57.90
46217;DHT22;47258;59.424;13.482;2023-05-07T01:55:43;21.00;57.70
46217;DHT22;47258;59.424;13.482;2023-05-07T01:58:15;21.00;57.80
46217;DHT22;47258;59.424;13.482;2023-05-07T02:00:51;21.00;57.70
46217;DHT22;47258;59.424;13.482;2023-05-07T02:03:31;21.00;57.70
46217;DHT22;47258;59.424;13.482;2023-05-07T02:06:07;21.00;57.90
46217;DHT22;47258;59.424;13.482;2023-05-07T02:08:40;21.00;58.00
46217;DHT22;47258;59.424;13.482;2023-05-07T02:11:16;21.00;58.10
46217;DHT22;47258;59.424;13.482;2023-05-07T02:13:47;21.00;58.10
46217;DHT22;47258;59.424;13.482;2023-05-07T02:16:23;21.00;58.10
46217;DHT22;47258;59.424;13.482;2023-05-07T02:19:00;21.00;58.30
46217;DHT22;47258;59.424;13.482;2023-05-07T02:21:38;21.00;58.20
46217;DHT22;47258;59.424;13.482;2023-05-07T02:24:12;21.00;58.30
46217;DHT22;47258;59.424;13.482;2023-05-07T02:26:53;21.00;58.50
46217;DHT22;47258;59.424;13.482;2023-05-07T02:29:32;21.00;58.40
46217;DHT22;47258;59.424;13.482;2023-05-07T02:32:05;21.00;58.30
46217;DHT22;47258;59.424;13.482;2023-05-07T02:34:38;21.00;58.20
46217;DHT22;47258;59.424;13.482;2023-05-07T02:37:11;21.00;58.20
46217;DHT22;47258;59.424;13.482;2023-05-07T02:39:44;20.90;58.10
46217;DHT22;47258;59.424;13.482;2023-05-07T02:42:29;20.90;57.90
46217;DHT22;47258;59.424;13.482;2023-05-07T02:45:02;21.00;57.90
46217;DHT22;47258;59.424;13.482;2023-05-07T02:47:33;21.00;58.00
46217;DHT22;47258;59.424;13.482;2023-05-07T02:50:07;20.90;58.30
46217;DHT22;47258;59.424;13.482;2023-05-07T02:52:40;20.90;58.20
46217;DHT22;47258;59.424;13.482;2023-05-07T02:55:12;21.00;58.30
46217;DHT22;47258;59.424;13.482;2023-05-07T02:57:56;21.00;58.20
46217;DHT22;47258;59.424;13.482;2023-05-07T03:00:32;20.90;58.10
46217;DHT22;47258;59.424;13.482;2023-05-07T03:03:03;20.90;58.00
46217;DHT22;47258;59.424;13.482;2023-05-07T03:05:36;20.90;57.90
46217;DHT22;47258;59.424;13.482;2023-05-07T03:08:07;20.90;57.80
46217;DHT22;47258;59.424;13.482;2023-05-07T03:10:42;20.90;57.70
46217;DHT22;47258;59.424;13.482;2023-05-07T03:13:17;20.90;57.60
46217;DHT22;47258;59.424;13.482;2023-05-07T03:15:48;20.90;57.50
46217;DHT22;47258;59.424;13.482;2023-05-07T03:18:21;20.90;57.50
46217;DHT22;47258;59.424;13.482;2023-05-07T03:20:58;20.90;57.50
46217;DHT22;47258;59.424;13.482;2023-05-07T03:23:34;20.90;57.40
46217;DHT22;47258;59.424;13.482;2023-05-07T03:26:11;20.90;57.30
46217;DHT22;47258;59.424;13.482;2023-05-07T03:28:57;20.90;57.40
46217;DHT22;47258;59.424;13.482;2023-05-07T03:31:31;20.80;57.20
46217;DHT22;47258;59.424;13.482;2023-05-07T03:34:05;20.80;57.10
46217;DHT22;47258;59.424;13.482;2023-05-07T03:36:38;20.80;57.10
46217;DHT22;47258;59.424;13.482;2023-05-07T03:39:11;20.90;57.20
46217;DHT22;47258;59.424;13.482;2023-05-07T03:41:48;20.80;57.10
46217;DHT22;47258;59.424;13.482;2023-05-07T03:44:31;20.90;57.20
46217;DHT22;47258;59.424;13.482;2023-05-07T03:47:09;20.90;57.40
46217;DHT22;47258;59.424;13.482;2023-05-07T03:49:45;20.80;57.40
46217;DHT22;47258;59.424;13.482;2023-05-07T03:52:17;20.80;57.50
46217;DHT22;47258;59.424;13.482;2023-05-07T03:54:56;20.80;57.60
46217;DHT22;47258;59.424;13.482;2023-05-07T03:57:33;20.90;57.90
46217;DHT22;47258;59.424;13.482;2023-05-07T04:00:10;20.80;57.80
46217;DHT22;47258;59.424;13.482;2023-05-07T04:02:41;20.80;57.90
46217;DHT22;47258;59.424;13.482;2023-05-07T04:05:11;20.80;57.90
46217;DHT22;47258;59.424;13.482;2023-05-07T04:07:47;20.80;58.10
46217;DHT22;47258;59.424;13.482;2023-05-07T04:10:17;20.80;58.00
46217;DHT22;47258;59.424;13.482;2023-05-07T04:12:52;20.80;58.00
46217;DHT22;47258;59.424;13.482;2023-05-07T04:15:35;20.80;57.90
46217;DHT22;47258;59.424;13.482;2023-05-07T04:18:07;20.80;57.90
46217;DHT22;47258;59.424;13.482;2023-05-07T04:20:40;20.80;57.80
46217;DHT22;47258;59.424;13.482;2023-05-07T04:23:16;20.80;57.70
46217;DHT22;47258;59.424;13.482;2023-05-07T04:25:53;20.80;57.70
46217;DHT22;47258;59.424;13.482;2023-05-07T04:28:25;20.80;57.70
46217;DHT22;47258;59.424;13.482;2023-05-07T04:31:01;20.80;57.80
46217;DHT22;47258;59.424;13.482;2023-05-07T04:33:34;20.80;58.00
46217;DHT22;47258;59.424;13.482;2023-05-07T04:36:11;20.80;58.00
46217;DHT22;47258;59.424;13.482;2023-05-07T04:38:54;20.70;58.00
46217;DHT22;47258;59.424;13.482;2023-05-07T04:41:31;20.70;58.00
46217;DHT22;47258;59.424;13.482;2023-05-07T04:44:06;20.80;57.90
46217;DHT22;47258;59.424;13.482;2023-05-07T04:46:46;20.80;57.80
46217;DHT22;47258;59.424;13.482;2023-05-07T04:49:24;20.80;57.70
46217;DHT22;47258;59.424;13.482;2023-05-07T04:52:00;20.80;57.50
46217;DHT22;47258;59.424;13.482;2023-05-07T04:54:34;20.70;57.40
46217;DHT22;47258;59.424;13.482;2023-05-07T04:57:06;20.70;57.40
46217;DHT22;47258;59.424;13.482;2023-05-07T04:59:43;20.80;57.40
46217;DHT22;47258;59.424;13.482;2023-05-07T05:02:24;20.80;57.20
46217;DHT22;47258;59.424;13.482;2023-05-07T05:05:01;20.80;57.20
46217;DHT22;47258;59.424;13.482;2023-05-07T05:07:32;20.80;57.20
46217;DHT22;47258;59.424;13.482;2023-05-07T05:10:07;20.70;57.10
46217;DHT22;47258;59.424;13.482;2023-05-07T05:12:44;20.70;57.10
46217;DHT22;47258;59.424;13.482;2023-05-07T05:15:18;20.70;57.00
46217;DHT22;47258;59.424;13.482;2023-05-07T05:17:59;20.80;57.10
46217;DHT22;47258;59.424;13.482;2023-05-07T05:20:32;20.70;57.10
46217;DHT22;47258;59.424;13.482;2023-05-07T05:23:07;20.70;56.90
46217;DHT22;47258;59.424;13.482;2023-05-07T05:25:44;20.70;56.90
46217;DHT22;47258;59.424;13.482;2023-05-07T05:28:17;20.70;56.80
46217;DHT22;47258;59.424;13.482;2023-05-07T05:30:47;20.70;56.70
46217;DHT22;47258;59.424;13.482;2023-05-07T05:33:21;20.70;56.70
46217;DHT22;47258;59.424;13.482;2023-05-07T05:35:57;20.80;56.80
46217;DHT22;47258;59.424;13.482;2023-05-07T05:38:30;20.70;56.70
46217;DHT22;47258;59.424;13.482;2023-05-07T05:41:03;20.70;56.60
46217;DHT22;47258;59.424;13.482;2023-05-07T05:43:36;20.80;56.60
46217;DHT22;47258;59.424;13.482;2023-05-07T05:46:11;20.80;56.60
46217;DHT22;47258;59.424;13.482;2023-05-07T05:48:50;20.80;56.60
46217;DHT22;47258;59.424;13.482;2023-05-07T05:51:29;20.80;56.70
46217;DHT22;47258;59.424;13.482;2023-05-07T05:54:05;20.80;56.70
46217;DHT22;47258;59.424;13.482;2023-05-07T05:56:41;20.80;56.80
46217;DHT22;47258;59.424;13.482;2023-05-07T05:59:20;20.80;56.80
46217;DHT22;47258;59.424;13.482;2023-05-07T06:01:58;20.80;56.80
46217;DHT22;47258;59.424;13.482;2023-05-07T06:04:39;20.90;57.00
46217;DHT22;47258;59.424;13.482;2023-05-07T06:07:16;20.90;57.30
46217;DHT22;47258;59.424;13.482;2023-05-07T06:09:52;21.00;57.50
46217;DHT22;47258;59.424;13.482;2023-05-07T06:12:31;21.00;57.60
46217;DHT22;47258;59.424;13.482;2023-05-07T06:15:08;21.10;57.50
46217;DHT22;47258;59.424;13.482;2023-05-07T06:17:45;21.20;57.50
46217;DHT22;47258;59.424;13.482;2023-05-07T06:20:20;21.30;57.40
46217;DHT22;47258;59.424;13.482;2023-05-07T06:22:58;21.30;57.10
46217;DHT22;47258;59.424;13.482;2023-05-07T06:25:38;21.40;57.00
46217;DHT22;47258;59.424;13.482;2023-05-07T06:28:16;21.50;56.80
46217;DHT22;47258;59.424;13.482;2023-05-07T06:30:49;21.60;56.70
46217;DHT22;47258;59.424;13.482;2023-05-07T06:33:26;21.70;56.70
46217;DHT22;47258;59.424;13.482;2023-05-07T06:36:03;21.70;56.70
46217;DHT22;47258;59.424;13.482;2023-05-07T06:38:38;21.80;55.50
46217;DHT22;47258;59.424;13.482;2023-05-07T06:41:20;21.90;54.20
46217;DHT22;47258;59.424;13.482;2023-05-07T06:44:08;21.90;53.40
46217;DHT22;47258;59.424;13.482;2023-05-07T06:46:46;22.00;53.00
46217;DHT22;47258;59.424;13.482;2023-05-07T06:49:19;22.00;52.60
46217;DHT22;47258;59.424;13.482;2023-05-07T06:52:07;22.10;52.40
46217;DHT22;47258;59.424;13.482;2023-05-07T06:54:51;22.10;52.10
46217;DHT22;47258;59.424;13.482;2023-05-07T06:57:30;22.10;52.10
46217;DHT22;47258;59.424;13.482;2023-05-07T07:00:12;22.10;52.10
46217;DHT22;47258;59.424;13.482;2023-05-07T07:02:48;22.20;52.70
46217;DHT22;47258;59.424;13.482;2023-05-07T07:05:23;22.20;52.10
46217;DHT22;47258;59.424;13.482;2023-05-07T07:08:00;22.20;52.00
46217;DHT22;47258;59.424;13.482;2023-05-07T07:10:34;22.30;52.00
46217;DHT22;47258;59.424;13.482;2023-05-07T07:13:10;22.30;52.00
46217;DHT22;47258;59.424;13.482;2023-05-07T07:15:51;22.30;52.00
46217;DHT22;47258;59.424;13.482;2023-05-07T07:18:25;22.30;51.90
46217;DHT22;47258;59.424;13.482;2023-05-07T07:20:58;22.40;52.00
46217;DHT22;47258;59.424;13.482;2023-05-07T07:23:35;22.40;51.90
46217;DHT22;47258;59.424;13.482;2023-05-07T07:26:06;22.40;51.90
46217;DHT22;47258;59.424;13.482;2023-05-07T07:28:43;22.40;51.80
46217;DHT22;47258;59.424;13.482;2023-05-07T07:31:21;22.50;51.70
46217;DHT22;47258;59.424;13.482;2023-05-07T07:33:57;22.50;51.70
46217;DHT22;47258;59.424;13.482;2023-05-07T07:36:40;22.50;51.70
46217;DHT22;47258;59.424;13.482;2023-05-07T07:39:28;22.50;51.70
46217;DHT22;47258;59.424;13.482;2023-05-07T07:42:01;22.60;51.80
46217;DHT22;47258;59.424;13.482;2023-05-07T07:44:36;22.60;51.80
46217;DHT22;47258;59.424;13.482;2023-05-07T07:47:16;22.70;51.80
46217;DHT22;47258;59.424;13.482;2023-05-07T07:49:51;22.70;51.90
46217;DHT22;47258;59.424;13.482;2023-05-07T07:52:24;22.70;51.90
46217;DHT22;47258;59.424;13.482;2023-05-07T07:55:04;22.80;51.80
46217;DHT22;47258;59.424;13.482;2023-05-07T07:57:40;22.80;51.80
46217;DHT22;47258;59.424;13.482;2023-05-07T08:00:23;22.90;51.60
46217;DHT22;47258;59.424;13.482;2023-05-07T08:03:01;22.90;51.60
46217;DHT22;47258;59.424;13.482;2023-05-07T08:05:34;23.00;51.50
46217;DHT22;47258;59.424;13.482;2023-05-07T08:08:11;23.00;51.40
46217;DHT22;47258;59.424;13.482;2023-05-07T08:11:04;23.00;51.20
46217;DHT22;47258;59.424;13.482;2023-05-07T08:13:45;23.10;51.10
46217;DHT22;47258;59.424;13.482;2023-05-07T08:16:30;23.10;51.10
46217;DHT22;47258;59.424;13.482;2023-05-07T08:19:10;23.20;51.10
46217;DHT22;47258;59.424;13.482;2023-05-07T08:21:58;23.20;51.10
46217;DHT22;47258;59.424;13.482;2023-05-07T08:24:33;23.20;50.90
46217;DHT22;47258;59.424;13.482;2023-05-07T08:27:08;23.30;50.80
46217;DHT22;47258;59.424;13.482;2023-05-07T08:29:48;23.30;50.70
46217;DHT22;47258;59.424;13.482;2023-05-07T08:32:21;23.30;50.60
46217;DHT22;47258;59.424;13.482;2023-05-07T08:34:59;23.40;50.60
46217;DHT22;47258;59.424;13.482;2023-05-07T08:37:33;23.40;50.60
46217;DHT22;47258;59.424;13.482;2023-05-07T08:40:06;23.50;50.60
46217;DHT22;47258;59.424;13.482;2023-05-07T08:42:55;23.50;50.40
46217;DHT22;47258;59.424;13.482;2023-05-07T08:45:37;23.50;50.50
46217;DHT22;47258;59.424;13.482;2023-05-07T08:48:18;23.60;50.80
46217;DHT22;47258;59.424;13.482;2023-05-07T08:50:53;23.60;50.80
46217;DHT22;47258;59.424;13.482;2023-05-07T08:53:26;23.70;50.80
46217;DHT22;47258;59.424;13.482;2023-05-07T08:55:56;23.70;50.80
46217;DHT22;47258;59.424;13.482;2023-05-07T08:58:26;23.80;50.80
46217;DHT22;47258;59.424;13.482;2023-05-07T09:00:54;23.80;50.70
46217;DHT22;47258;59.424;13.482;2023-05-07T09:03:24;23.90;50.30
46217;DHT22;47258;59.424;13.482;2023-05-07T09:05:52;23.90;49.20
46217;DHT22;47258;59.424;13.482;2023-05-07T09:08:24;23.90;48.60
46217;DHT22;47258;59.424;13.482;2023-05-07T09:10:53;23.90;48.50
46217;DHT22;47258;59.424;13.482;2023-05-07T09:13:21;23.90;48.70
46217;DHT22;47258;59.424;13.482;2023-05-07T09:15:49;23.90;48.80
46217;DHT22;47258;59.424;13.482;2023-05-07T09:18:16;23.90;48.90
46217;DHT22;47258;59.424;13.482;2023-05-07T09:20:44;24.00;49.10
46217;DHT22;47258;59.424;13.482;2023-05-07T09:23:11;24.00;49.10
46217;DHT22;47258;59.424;13.482;2023-05-07T09:25:39;24.00;49.10
46217;DHT22;47258;59.424;13.482;2023-05-07T09:28:06;24.00;49.00
46217;DHT22;47258;59.424;13.482;2023-05-07T09:30:35;24.10;49.00
46217;DHT22;47258;59.424;13.482;2023-05-07T09:33:04;24.10;49.20
46217;DHT22;47258;59.424;13.482;2023-05-07T09:35:32;24.10;49.10
46217;DHT22;47258;59.424;13.482;2023-05-07T09:38:00;24.10;49.00
46217;DHT22;47258;59.424;13.482;2023-05-07T09:40:29;24.20;48.90
46217;DHT22;47258;59.424;13.482;2023-05-07T09:43:09;24.20;48.90
46217;DHT22;47258;59.424;13.482;2023-05-07T09:45:37;24.20;48.80
46217;DHT22;47258;59.424;13.482;2023-05-07T09:48:06;24.30;48.80
46217;DHT22;47258;59.424;13.482;2023-05-07T09:50:39;24.30;48.70
46217;DHT22;47258;59.424;13.482;2023-05-07T09:53:10;24.40;48.70
46217;DHT22;47258;59.424;13.482;2023-05-07T09:55:38;24.40;48.60
46217;DHT22;47258;59.424;13.482;2023-05-07T09:58:09;24.40;48.60
46217;DHT22;47258;59.424;13.482;2023-05-07T10:00:40;24.40;48.50
46217;DHT22;47258;59.424;13.482;2023-05-07T10:03:13;24.40;48.40
46217;DHT22;47258;59.424;13.482;2023-05-07T10:05:42;24.40;48.40
46217;DHT22;47258;59.424;13.482;2023-05-07T10:08:10;24.50;48.40
46217;DHT22;47258;59.424;13.482;2023-05-07T10:10:38;24.50;48.40
46217;DHT22;47258;59.424;13.482;2023-05-07T10:13:07;24.50;48.40
46217;DHT22;47258;59.424;13.482;2023-05-07T10:15:36;24.50;48.40
46217;DHT22;47258;59.424;13.482;2023-05-07T10:18:06;24.50;48.40
46217;DHT22;47258;59.424;13.482;2023-05-07T10:20:38;24.50;48.40
46217;DHT22;47258;59.424;13.482;2023-05-07T10:23:07;24.50;48.30
46217;DHT22;47258;59.424;13.482;2023-05-07T10:25:35;24.50;48.30
46217;DHT22;47258;59.424;13.482;2023-05-07T10:28:06;24.50;48.60
46217;DHT22;47258;59.424;13.482;2023-05-07T10:30:41;24.50;48.40
46217;DHT22;47258;59.424;13.482;2023-05-07T10:33:17;24.50;48.40
46217;DHT22;47258;59.424;13.482;2023-05-07T10:35:49;24.50;48.40
46217;DHT22;47258;59.424;13.482;2023-05-07T10:38:16;24.50;48.50
46217;DHT22;47258;59.424;13.482;2023-05-07T10:40:46;24.50;48.50
46217;DHT22;47258;59.424;13.482;2023-05-07T10:43:14;24.60;48.40
46217;DHT22;47258;59.424;13.482;2023-05-07T10:45:42;24.50;48.40
46217;DHT22;47258;59.424;13.482;2023-05-07T10:48:12;24.60;48.40
46217;DHT22;47258;59.424;13.482;2023-05-07T10:50:40;24.60;48.40
46217;DHT22;47258;59.424;13.482;2023-05-07T10:53:30;24.60;48.40
46217;DHT22;47258;59.424;13.482;2023-05-07T10:56:25;24.60;49.10
46217;DHT22;47258;59.424;13.482;2023-05-07T11:01:53;24.60;48.40
46217;DHT22;47258;59.424;13.482;2023-05-07T11:04:20;24.60;48.40
46217;DHT22;47258;59.424;13.482;2023-05-07T11:07:26;24.60;48.40
46217;DHT22;47258;59.424;13.482;2023-05-07T11:10:13;24.60;48.40
46217;DHT22;47258;59.424;13.482;2023-05-07T11:12:56;24.70;48.50
46217;DHT22;47258;59.424;13.482;2023-05-07T11:15:37;24.70;48.40
46217;DHT22;47258;59.424;13.482;2023-05-07T11:18:05;24.70;48.30
46217;DHT22;47258;59.424;13.482;2023-05-07T11:20:50;24.70;48.30
46217;DHT22;47258;59.424;13.482;2023-05-07T11:26:45;24.70;48.30
46217;DHT22;47258;59.424;13.482;2023-05-07T11:29:14;24.70;48.30
46217;DHT22;47258;59.424;13.482;2023-05-07T11:31:42;24.70;48.20
46217;DHT22;47258;59.424;13.482;2023-05-07T11:34:10;24.70;48.10
46217;DHT22;47258;59.424;13.482;2023-05-07T11:36:42;24.70;48.10
46217;DHT22;47258;59.424;13.482;2023-05-07T11:39:27;24.70;48.00
46217;DHT22;47258;59.424;13.482;2023-05-07T11:41:56;24.70;48.10
46217;DHT22;47258;59.424;13.482;2023-05-07T11:44:23;24.70;48.30
46217;DHT22;47258;59.424;13.482;2023-05-07T11:46:51;24.80;48.70
46217;DHT22;47258;59.424;13.482;2023-05-07T11:49:18;24.70;48.40
46217;DHT22;47258;59.424;13.482;2023-05-07T11:51:46;24.70;48.30
46217;DHT22;47258;59.424;13.482;2023-05-07T11:54:16;24.70;48.40
46217;DHT22;47258;59.424;13.482;2023-05-07T11:56:44;24.80;48.30
46217;DHT22;47258;59.424;13.482;2023-05-07T11:59:19;24.70;48.20
46217;DHT22;47258;59.424;13.482;2023-05-07T12:01:47;24.80;48.20
46217;DHT22;47258;59.424;13.482;2023-05-07T12:04:19;24.80;48.40
46217;DHT22;47258;59.424;13.482;2023-05-07T12:06:47;24.80;48.40
46217;DHT22;47258;59.424;13.482;2023-05-07T12:09:16;24.80;48.40
46217;DHT22;47258;59.424;13.482;2023-05-07T12:11:46;24.80;48.40
46217;DHT22;47258;59.424;13.482;2023-05-07T12:14:13;24.80;48.40
46217;DHT22;47258;59.424;13.482;2023-05-07T12:16:44;24.80;48.30
46217;DHT22;47258;59.424;13.482;2023-05-07T12:19:11;24.80;48.20
46217;DHT22;47258;59.424;13.482;2023-05-07T12:21:39;24.80;48.20
46217;DHT22;47258;59.424;13.482;2023-05-07T12:24:08;24.80;48.30
46217;DHT22;47258;59.424;13.482;2023-05-07T12:26:38;24.80;48.00
46217;DHT22;47258;59.424;13.482;2023-05-07T12:29:06;24.80;47.80
46217;DHT22;47258;59.424;13.482;2023-05-07T12:31:34;24.80;47.70
46217;DHT22;47258;59.424;13.482;2023-05-07T12:34:02;24.80;47.80
46217;DHT22;47258;59.424;13.482;2023-05-07T12:36:37;24.80;47.70
46217;DHT22;47258;59.424;13.482;2023-05-07T12:39:05;24.80;47.80
46217;DHT22;47258;59.424;13.482;2023-05-07T12:41:51;24.90;48.10
46217;DHT22;47258;59.424;13.482;2023-05-07T12:44:19;24.90;48.00
46217;DHT22;47258;59.424;13.482;2023-05-07T12:46:48;24.90;47.90
46217;DHT22;47258;59.424;13.482;2023-05-07T12:49:17;24.90;47.00
46217;DHT22;47258;59.424;13.482;2023-05-07T12:51:46;24.80;45.60
46217;DHT22;47258;59.424;13.482;2023-05-07T12:54:14;24.80;45.60
46217;DHT22;47258;59.424;13.482;2023-05-07T12:56:41;24.70;46.80
46217;DHT22;47258;59.424;13.482;2023-05-07T12:59:09;24.70;47.20
46217;DHT22;47258;59.424;13.482;2023-05-07T13:01:36;24.70;47.40
46217;DHT22;47258;59.424;13.482;2023-05-07T13:04:04;24.70;47.70
46217;DHT22;47258;59.424;13.482;2023-05-07T13:06:32;24.70;47.80
46217;DHT22;47258;59.424;13.482;2023-05-07T13:09:00;24.70;47.90
46217;DHT22;47258;59.424;13.482;2023-05-07T13:11:27;24.70;47.70
46217;DHT22;47258;59.424;13.482;2023-05-07T13:13:54;24.80;47.70
46217;DHT22;47258;59.424;13.482;2023-05-07T13:16:22;24.70;47.50
46217;DHT22;47258;59.424;13.482;2023-05-07T13:18:49;24.70;47.70
46217;DHT22;47258;59.424;13.482;2023-05-07T13:21:17;24.70;47.60
46217;DHT22;47258;59.424;13.482;2023-05-07T13:23:45;24.80;47.60
46217;DHT22;47258;59.424;13.482;2023-05-07T13:26:13;24.80;47.20
46217;DHT22;47258;59.424;13.482;2023-05-07T13:28:40;24.70;47.20
46217;DHT22;47258;59.424;13.482;2023-05-07T13:31:09;24.70;46.90
46217;DHT22;47258;59.424;13.482;2023-05-07T13:33:36;24.70;46.60
46217;DHT22;47258;59.424;13.482;2023-05-07T13:36:04;24.70;46.20
46217;DHT22;47258;59.424;13.482;2023-05-07T13:38:31;24.70;46.10
46217;DHT22;47258;59.424;13.482;2023-05-07T13:41:03;24.70;46.10
46217;DHT22;47258;59.424;13.482;2023-05-07T13:43:31;24.70;45.80
46217;DHT22;47258;59.424;13.482;2023-05-07T13:45:59;24.70;45.50
46217;DHT22;47258;59.424;13.482;2023-05-07T13:48:26;24.60;44.90
46217;DHT22;47258;59.424;13.482;2023-05-07T13:50:54;24.60;44.20
46217;DHT22;47258;59.424;13.482;2023-05-07T13:53:21;24.60;43.80
46217;DHT22;47258;59.424;13.482;2023-05-07T13:55:49;24.60;43.80
46217;DHT22;47258;59.424;13.482;2023-05-07T13:58:19;24.50;43.30
46217;DHT22;47258;59.424;13.482;2023-05-07T14:00:46;24.50;43.00
46217;DHT22;47258;59.424;13.482;2023-05-07T14:03:14;24.50;43.10
46217;DHT22;47258;59.424;13.482;2023-05-07T14:05:41;24.50;43.30
46217;DHT22;47258;59.424;13.482;2023-05-07T14:08:09;24.50;43.90
46217;DHT22;47258;59.424;13.482;2023-05-07T14:10:36;24.50;44.10
46217;DHT22;47258;59.424;13.482;2023-05-07T14:13:04;24.50;43.80
46217;DHT22;47258;59.424;13.482;2023-05-07T14:15:33;24.50;43.70
46217;DHT22;47258;59.424;13.482;2023-05-07T14:18:01;24.40;43.50
46217;DHT22;47258;59.424;13.482;2023-05-07T14:20:29;24.40;43.50
46217;DHT22;47258;59.424;13.482;2023-05-07T14:22:57;24.40;43.60
46217;DHT22;47258;59.424;13.482;2023-05-07T14:25:24;24.40;43.40
46217;DHT22;47258;59.424;13.482;2023-05-07T14:27:52;24.40;43.30
46217;DHT22;47258;59.424;13.482;2023-05-07T14:30:19;24.40;43.10
46217;DHT22;47258;59.424;13.482;2023-05-07T14:32:49;24.40;43.10
46217;DHT22;47258;59.424;13.482;2023-05-07T14:35:17;24.40;42.80
46217;DHT22;47258;59.424;13.482;2023-05-07T14:37:44;24.40;42.70
46217;DHT22;47258;59.424;13.482;2023-05-07T14:40:12;24.40;42.50
46217;DHT22;47258;59.424;13.482;2023-05-07T14:42:40;24.30;42.60
46217;DHT22;47258;59.424;13.482;2023-05-07T14:45:09;24.30;42.20
46217;DHT22;47258;59.424;13.482;2023-05-07T14:47:36;24.30;41.60
46217;DHT22;47258;59.424;13.482;2023-05-07T14:50:06;24.30;41.20
46217;DHT22;47258;59.424;13.482;2023-05-07T14:52:33;24.20;40.80
46217;DHT22;47258;59.424;13.482;2023-05-07T14:55:00;24.20;40.40
46217;DHT22;47258;59.424;13.482;2023-05-07T14:57:28;24.20;40.00
46217;DHT22;47258;59.424;13.482;2023-05-07T14:59:55;24.20;39.90
46217;DHT22;47258;59.424;13.482;2023-05-07T15:02:24;24.10;40.10
46217;DHT22;47258;59.424;13.482;2023-05-07T15:04:52;24.10;40.60
46217;DHT22;47258;59.424;13.482;2023-05-07T15:07:21;24.00;40.00
46217;DHT22;47258;59.424;13.482;2023-05-07T15:09:49;24.00;39.70
46217;DHT22;47258;59.424;13.482;2023-05-07T15:12:17;24.00;39.60
46217;DHT22;47258;59.424;13.482;2023-05-07T15:14:44;24.00;39.70
46217;DHT22;47258;59.424;13.482;2023-05-07T15:17:11;24.00;39.90
46217;DHT22;47258;59.424;13.482;2023-05-07T15:19:40;24.00;40.00
46217;DHT22;47258;59.424;13.482;2023-05-07T15:22:08;23.90;40.00
46217;DHT22;47258;59.424;13.482;2023-05-07T15:24:37;23.90;39.90
46217;DHT22;47258;59.424;13.482;2023-05-07T15:27:04;23.90;40.30
46217;DHT22;47258;59.424;13.482;2023-05-07T15:29:32;23.90;40.70
46217;DHT22;47258;59.424;13.482;2023-05-07T15:32:00;23.90;40.60
46217;DHT22;47258;59.424;13.482;2023-05-07T15:34:27;23.90;40.70
46217;DHT22;47258;59.424;13.482;2023-05-07T15:36:56;23.90;41.00
46217;DHT22;47258;59.424;13.482;2023-05-07T15:39:23;23.90;41.40
46217;DHT22;47258;59.424;13.482;2023-05-07T15:41:52;23.90;41.50
46217;DHT22;47258;59.424;13.482;2023-05-07T15:44:20;23.90;41.30
46217;DHT22;47258;59.424;13.482;2023-05-07T15:46:47;23.90;41.60
46217;DHT22;47258;59.424;13.482;2023-05-07T15:49:15;23.90;41.80
46217;DHT22;47258;59.424;13.482;2023-05-07T15:51:42;23.90;41.50
46217;DHT22;47258;59.424;13.482;2023-05-07T15:54:11;23.90;41.00
46217;DHT22;47258;59.424;13.482;2023-05-07T15:56:38;23.90;40.80
46217;DHT22;47258;59.424;13.482;2023-05-07T15:59:07;23.90;41.30